createdAt,value
2019-02-04T00:02:24.699Z,13.87
2019-02-04T00:04:54.983Z,13.73
2019-02-04T00:07:24.454Z,10.73
2019-02-04T00:09:53.915Z,12.07
2019-02-04T00:12:24.923Z,10.67
2019-02-04T00:14:54.703Z,7.10
2019-02-04T00:17:25.853Z,7.50
2019-02-04T00:19:56.503Z,10.43
2019-02-04T00:22:26.532Z,6.70
2019-02-04T00:24:56.067Z,9.57
2019-02-04T00:27:25.212Z,9.03
2019-02-04T00:29:54.818Z,6.57
2019-02-04T00:32:24.773Z,9.27
2019-02-04T00:34:54.026Z,8.07
2019-02-04T00:37:23.483Z,8.50
2019-02-04T00:39:52.921Z,7.90
2019-02-04T00:42:23.068Z,8.83
2019-02-04T00:44:53.672Z,9.00
2019-02-04T00:47:24.084Z,9.13
2019-02-04T00:49:54.840Z,9.77
2019-02-04T00:52:24.700Z,9.67
2019-02-04T00:54:56.617Z,9.43
2019-02-04T00:57:26.845Z,9.80
2019-02-04T00:59:57.485Z,10.07
2019-02-04T01:02:28.513Z,10.03
2019-02-04T01:04:58.270Z,11.03
2019-02-04T01:07:27.748Z,12.43
2019-02-04T01:09:57.869Z,11.07
2019-02-04T01:12:27.287Z,13.10
2019-02-04T01:14:58.513Z,13.70
2019-02-04T01:17:28.409Z,12.53
2019-02-04T01:20:00.479Z,12.63
2019-02-04T01:22:30.447Z,13.83
2019-02-04T01:25:01.697Z,12.80
2019-02-04T01:27:31.735Z,11.37
2019-02-04T01:30:02.238Z,10.47
2019-02-04T01:32:33.794Z,9.53
2019-02-04T01:35:03.582Z,9.60
2019-02-04T01:37:32.027Z,8.17
2019-02-04T01:40:03.967Z,9.67
2019-02-04T01:42:33.283Z,12.60
2019-02-04T01:45:05.138Z,11.10
2019-02-04T01:47:35.043Z,10.27
2019-02-04T01:50:06.318Z,8.70
2019-02-04T01:52:36.708Z,8.50
2019-02-04T01:55:08.012Z,7.57
2019-02-04T01:57:36.703Z,8.40
2019-02-04T02:00:12.750Z,7.63
2019-02-04T02:02:42.308Z,8.00
2019-02-04T02:05:11.683Z,6.77
2019-02-04T02:07:41.825Z,6.67
2019-02-04T02:10:15.540Z,6.70
2019-02-04T02:12:46.662Z,7.00
2019-02-04T02:15:16.901Z,8.43
2019-02-04T02:17:47.250Z,9.93
2019-02-04T02:20:21.188Z,10.83
2019-02-04T02:22:51.705Z,9.93
2019-02-04T02:25:22.310Z,9.57
2019-02-04T02:27:52.931Z,9.53
2019-02-04T02:30:27.617Z,9.37
2019-02-04T02:32:57.751Z,8.03
2019-02-04T02:35:27.967Z,7.70
2019-02-04T02:37:57.581Z,8.03
2019-02-04T02:40:36.381Z,7.63
2019-02-04T02:43:05.233Z,7.50
2019-02-04T02:45:35.132Z,7.63
2019-02-04T02:48:05.637Z,7.87
2019-02-04T02:50:35.769Z,8.40
2019-02-04T02:53:06.670Z,7.83
2019-02-04T02:55:37.479Z,8.33
2019-02-04T02:58:07.230Z,8.87
2019-02-04T03:00:37.676Z,9.67
2019-02-04T03:03:07.023Z,8.97
2019-02-04T03:05:38.033Z,10.80
2019-02-04T03:08:09.565Z,9.67
2019-02-04T03:10:39.935Z,10.27
2019-02-04T03:13:09.330Z,10.50
2019-02-04T03:15:38.081Z,10.77
2019-02-04T03:18:08.148Z,11.63
2019-02-04T03:20:36.896Z,12.00
2019-02-04T03:23:06.970Z,10.93
2019-02-04T03:25:36.808Z,11.67
2019-02-04T03:28:07.862Z,11.23
2019-02-04T03:30:37.831Z,10.63
2019-02-04T03:33:09.091Z,10.53
2019-02-04T03:35:39.528Z,11.67
2019-02-04T03:38:09.895Z,10.93
2019-02-04T03:40:39.878Z,11.67
2019-02-04T03:43:10.205Z,13.20
2019-02-04T03:45:42.691Z,12.50
2019-02-04T03:48:12.044Z,13.40
2019-02-04T03:50:42.999Z,13.00
2019-02-04T03:53:12.268Z,12.43
2019-02-04T03:55:42.096Z,11.90
2019-02-04T03:58:12.356Z,12.20
2019-02-04T04:00:42.387Z,12.23
2019-02-04T04:03:12.203Z,12.57
2019-02-04T04:05:49.370Z,12.43
2019-02-04T04:08:22.537Z,13.37
2019-02-04T04:10:52.527Z,13.80
2019-02-04T04:13:21.487Z,13.27
2019-02-04T04:15:52.569Z,13.97
2019-02-04T04:18:22.061Z,13.33
2019-02-04T04:20:51.346Z,13.83
2019-02-04T04:23:22.353Z,13.37
2019-02-04T04:25:54.033Z,13.50
2019-02-04T04:28:24.141Z,12.47
2019-02-04T04:30:55.171Z,12.43
2019-02-04T04:33:25.445Z,13.27
2019-02-04T04:35:54.886Z,12.53
2019-02-04T04:38:24.699Z,12.70
2019-02-04T04:40:53.351Z,11.33
2019-02-04T04:43:22.283Z,11.30
2019-02-04T04:45:53.502Z,10.93
2019-02-04T04:48:26.660Z,11.93
2019-02-04T04:50:54.599Z,12.23
2019-02-04T04:53:25.237Z,11.57
2019-02-04T04:55:54.934Z,12.50
2019-02-04T04:58:28.439Z,11.90
2019-02-04T05:00:58.448Z,11.00
2019-02-04T05:03:27.761Z,11.80
2019-02-04T05:05:57.381Z,11.97
2019-02-04T05:08:28.794Z,11.70
2019-02-04T05:10:58.316Z,11.07
2019-02-04T05:13:28.954Z,12.77
2019-02-04T05:15:59.123Z,12.10
2019-02-04T05:18:37.906Z,10.87
2019-02-04T05:21:02.438Z,10.70
2019-02-04T05:23:32.444Z,11.40
2019-02-04T05:26:04.457Z,10.60
2019-02-04T05:28:35.336Z,10.67
2019-02-04T05:31:05.346Z,10.87
2019-02-04T05:33:35.436Z,11.30
2019-02-04T05:36:05.141Z,10.97
2019-02-04T05:38:35.218Z,12.67
2019-02-04T05:41:05.067Z,12.93
2019-02-04T05:43:34.417Z,12.33
2019-02-04T05:46:04.453Z,14.30
2019-02-04T05:48:34.989Z,13.27
2019-02-04T05:51:05.133Z,12.87
2019-02-04T05:53:35.139Z,12.77
2019-02-04T05:56:04.727Z,13.37
2019-02-04T05:58:35.007Z,13.07
2019-02-04T06:01:04.979Z,13.03
2019-02-04T06:03:34.996Z,12.83
2019-02-04T06:06:05.201Z,14.20
2019-02-04T06:08:33.866Z,14.27
2019-02-04T06:11:03.776Z,14.83
2019-02-04T06:13:33.365Z,13.50
2019-02-04T06:16:03.690Z,14.57
2019-02-04T06:18:33.749Z,15.10
2019-02-04T06:21:03.519Z,15.13
2019-02-04T06:23:33.145Z,14.40
2019-02-04T06:26:02.484Z,14.67
2019-02-04T06:28:32.292Z,13.60
2019-02-04T06:31:02.544Z,13.50
2019-02-04T06:33:33.806Z,13.07
2019-02-04T06:36:04.859Z,13.23
2019-02-04T06:38:34.997Z,13.13
2019-02-04T06:41:05.491Z,14.13
2019-02-04T06:43:35.591Z,13.67
2019-02-04T06:46:05.416Z,13.20
2019-02-04T06:48:35.329Z,12.30
2019-02-04T06:51:05.756Z,11.43
2019-02-04T06:53:35.184Z,12.00
2019-02-04T06:56:05.145Z,10.70
2019-02-04T06:58:34.681Z,10.40
2019-02-04T07:01:04.773Z,9.50
2019-02-04T07:03:34.375Z,8.10
2019-02-04T07:06:05.497Z,7.90
2019-02-04T07:08:35.169Z,9.13
2019-02-04T07:11:05.142Z,7.87
2019-02-04T07:13:35.277Z,8.33
2019-02-04T07:16:05.536Z,7.70
2019-02-04T07:18:35.078Z,8.00
2019-02-04T07:21:04.183Z,7.40
2019-02-04T07:23:34.418Z,8.63
2019-02-04T07:26:05.587Z,7.67
2019-02-04T07:28:34.483Z,7.73
2019-02-04T07:31:06.216Z,7.93
2019-02-04T07:33:37.036Z,8.00
2019-02-04T07:36:07.401Z,8.00
2019-02-04T07:38:38.261Z,7.67
2019-02-04T07:41:08.521Z,7.37
2019-02-04T07:43:39.683Z,6.87
2019-02-04T07:46:11.053Z,7.40
2019-02-04T07:48:41.500Z,6.87
2019-02-04T07:51:11.933Z,7.90
2019-02-04T07:53:41.765Z,7.83
2019-02-04T07:56:13.412Z,7.80
2019-02-04T07:58:43.585Z,7.47
2019-02-04T08:01:14.988Z,7.07
2019-02-04T08:03:44.065Z,7.80
2019-02-04T08:06:13.804Z,7.47
2019-02-04T08:08:44.181Z,5.93
2019-02-04T08:11:13.170Z,5.20
2019-02-04T08:13:43.494Z,5.07
2019-02-04T08:16:14.107Z,5.10
2019-02-04T08:18:44.422Z,4.83
2019-02-04T08:21:14.083Z,4.90
2019-02-04T08:23:43.773Z,5.80
2019-02-04T08:26:13.866Z,6.07
2019-02-04T08:28:44.367Z,4.57
2019-02-04T08:31:13.277Z,3.90
2019-02-04T08:33:45.251Z,3.70
2019-02-04T08:36:17.365Z,4.30
2019-02-04T08:38:47.146Z,7.30
2019-02-04T08:41:16.401Z,3.90
2019-02-04T08:43:49.926Z,4.60
2019-02-04T08:46:20.604Z,3.30
2019-02-04T08:48:51.650Z,3.17
2019-02-04T08:51:20.543Z,3.00
2019-02-04T08:53:50.777Z,4.30
2019-02-04T08:56:20.619Z,4.10
2019-02-04T08:58:49.968Z,4.03
2019-02-04T09:01:20.339Z,4.67
2019-02-04T09:03:50.173Z,4.07
2019-02-04T09:06:20.236Z,4.13
2019-02-04T09:08:50.703Z,3.47
2019-02-04T09:11:19.939Z,3.00
2019-02-04T09:13:50.724Z,3.70
2019-02-04T09:16:21.001Z,4.43
2019-02-04T09:18:51.936Z,2.83
2019-02-04T09:21:22.167Z,4.30
2019-02-04T09:23:51.121Z,3.70
2019-02-04T09:26:22.167Z,4.00
2019-02-04T09:28:51.376Z,4.37
2019-02-04T09:31:21.613Z,4.00
2019-02-04T09:33:51.427Z,4.77
2019-02-04T09:36:21.355Z,3.00
2019-02-04T09:38:50.543Z,3.73
2019-02-04T09:41:20.203Z,3.77
2019-02-04T09:43:50.847Z,3.57
2019-02-04T09:46:21.111Z,3.40
2019-02-04T09:48:51.718Z,3.50
2019-02-04T09:51:24.137Z,3.57
2019-02-04T09:53:53.934Z,3.73
2019-02-04T09:56:23.366Z,2.47
2019-02-04T09:58:54.625Z,2.67
2019-02-04T10:01:25.080Z,2.87
2019-02-04T10:03:56.526Z,2.60
2019-02-04T10:06:28.290Z,2.10
2019-02-04T10:09:01.434Z,2.80
2019-02-04T10:11:32.569Z,1.77
2019-02-04T10:14:02.940Z,2.73
2019-02-04T10:16:32.903Z,1.83
2019-02-04T10:19:02.684Z,2.77
2019-02-04T10:21:33.703Z,3.40
2019-02-04T10:24:04.260Z,2.00
2019-02-04T10:26:35.315Z,2.67
2019-02-04T10:29:05.763Z,2.70
2019-02-04T10:31:36.329Z,1.97
2019-02-04T10:34:06.566Z,3.87
2019-02-04T10:36:38.777Z,3.03
2019-02-04T10:39:10.007Z,2.37
2019-02-04T10:41:40.053Z,2.10
2019-02-04T10:44:10.383Z,2.00
2019-02-04T10:46:40.810Z,2.30
2019-02-04T10:49:09.889Z,1.70
2019-02-04T10:51:39.411Z,1.83
2019-02-04T10:54:10.008Z,1.70
2019-02-04T10:56:40.418Z,2.83
2019-02-04T10:59:10.274Z,3.70
2019-02-04T11:01:40.060Z,2.77
2019-02-04T11:04:10.344Z,3.43
2019-02-04T11:06:40.339Z,4.90
2019-02-04T11:09:10.643Z,2.03
2019-02-04T11:11:41.178Z,3.27
2019-02-04T11:14:11.954Z,2.50
2019-02-04T11:16:43.888Z,1.80
2019-02-04T11:19:14.166Z,3.47
2019-02-04T11:21:43.992Z,3.93
2019-02-04T11:24:14.923Z,2.57
2019-02-04T11:26:44.852Z,4.17
2019-02-04T11:29:14.967Z,2.73
2019-02-04T11:31:44.027Z,2.20
2019-02-04T11:34:14.483Z,2.40
2019-02-04T11:36:43.180Z,1.17
2019-02-04T11:39:13.928Z,2.30
2019-02-04T11:41:45.283Z,1.80
2019-02-04T11:44:15.312Z,2.70
2019-02-04T11:46:44.910Z,1.97
2019-02-04T11:49:14.712Z,2.57
2019-02-04T11:51:45.246Z,2.30
2019-02-04T11:54:14.846Z,1.60
2019-02-04T11:56:45.144Z,1.47
2019-02-04T11:59:17.259Z,2.33
2019-02-04T12:01:47.418Z,2.20
2019-02-04T12:04:16.876Z,2.67
2019-02-04T12:06:46.986Z,2.27
2019-02-04T12:09:17.526Z,3.23
2019-02-04T12:11:48.599Z,2.97
2019-02-04T12:14:19.494Z,2.93
2019-02-04T12:16:49.311Z,2.70
2019-02-04T12:19:18.818Z,3.80
2019-02-04T12:21:48.831Z,3.63
2019-02-04T12:24:18.117Z,1.60
2019-02-04T12:26:48.964Z,2.00
2019-02-04T12:29:19.656Z,2.90
2019-02-04T12:31:49.813Z,5.13
2019-02-04T12:34:20.294Z,4.50
2019-02-04T12:36:50.459Z,2.20
2019-02-04T12:39:21.933Z,1.70
2019-02-04T12:41:51.928Z,2.43
2019-02-04T12:44:25.342Z,2.43
2019-02-04T12:46:57.696Z,3.67
2019-02-04T12:49:27.893Z,3.50
2019-02-04T12:51:57.638Z,2.67
2019-02-04T12:54:27.467Z,2.30
2019-02-04T12:56:58.081Z,2.33
2019-02-04T12:59:28.243Z,2.13
2019-02-04T13:01:58.268Z,1.77
2019-02-04T13:04:28.571Z,3.47
2019-02-04T13:07:00.336Z,2.50
2019-02-04T13:09:31.884Z,2.07
2019-02-04T13:12:01.961Z,1.50
2019-02-04T13:14:32.010Z,2.40
2019-02-04T13:17:02.660Z,4.20
2019-02-04T13:19:32.626Z,4.13
2019-02-04T13:22:03.254Z,4.20
2019-02-04T13:24:32.772Z,7.73
2019-02-04T13:27:03.098Z,3.00
2019-02-04T13:29:33.626Z,9.03
2019-02-04T13:32:06.618Z,3.00
2019-02-04T13:34:36.831Z,2.33
2019-02-04T13:37:07.304Z,5.90
2019-02-04T13:39:38.561Z,4.67
2019-02-04T13:42:08.577Z,2.80
2019-02-04T13:44:38.183Z,7.27
2019-02-04T13:47:09.164Z,4.27
2019-02-04T13:49:39.228Z,2.87
2019-02-04T13:52:09.012Z,2.37
2019-02-04T13:54:39.626Z,2.30
2019-02-04T13:57:10.446Z,3.17
2019-02-04T13:59:43.054Z,4.10
2019-02-04T14:02:14.214Z,3.00
2019-02-04T14:04:45.654Z,3.20
2019-02-04T14:07:16.256Z,3.00
2019-02-04T14:09:46.666Z,3.20
2019-02-04T14:12:19.971Z,3.30
2019-02-04T14:14:50.516Z,3.27
2019-02-04T14:17:24.433Z,3.70
2019-02-04T14:19:54.135Z,3.17
2019-02-04T14:22:24.672Z,3.20
2019-02-04T14:24:56.469Z,5.63
2019-02-04T14:27:27.085Z,3.50
2019-02-04T14:29:57.850Z,3.53
2019-02-04T14:32:30.301Z,3.33
2019-02-04T14:35:01.988Z,3.10
2019-02-04T14:37:33.036Z,3.50
2019-02-04T14:40:17.827Z,4.27
2019-02-04T14:42:36.956Z,3.30
2019-02-04T14:45:33.232Z,4.00
2019-02-04T14:49:06.642Z,3.90
2019-02-04T14:52:21.426Z,3.80
2019-02-04T14:56:00.629Z,4.80
2019-02-04T14:59:04.635Z,4.13
2019-02-04T15:02:31.530Z,4.23
2019-02-04T15:05:40.529Z,4.20
2019-02-04T15:09:12.942Z,4.20
2019-02-04T15:12:23.399Z,3.27
2019-02-04T15:16:00.224Z,3.67
2019-02-04T15:19:37.907Z,3.60
2019-02-04T15:23:30.668Z,3.03
2019-02-04T15:26:48.517Z,2.80
2019-02-04T15:30:02.618Z,3.23
2019-02-04T15:33:15.458Z,3.30
2019-02-04T15:36:33.939Z,3.93
2019-02-04T15:39:51.409Z,3.40
2019-02-04T15:43:18.216Z,2.90
2019-02-04T15:46:47.499Z,2.80
2019-02-04T15:49:53.412Z,3.13
2019-02-04T15:52:23.112Z,3.47
2019-02-04T15:54:53.349Z,3.13
2019-02-04T15:57:23.911Z,3.20
2019-02-04T15:59:54.896Z,2.60
2019-02-04T16:02:25.521Z,3.13
2019-02-04T16:04:56.571Z,3.57
2019-02-04T16:07:26.500Z,3.07
2019-02-04T16:09:56.633Z,3.00
2019-02-04T16:12:26.504Z,3.30
2019-02-04T16:14:57.595Z,2.80
2019-02-04T16:17:27.623Z,2.87
2019-02-04T16:19:58.512Z,2.60
2019-02-04T16:22:29.436Z,3.13
2019-02-04T16:25:00.738Z,2.43
2019-02-04T16:27:31.614Z,3.03
2019-02-04T16:30:03.289Z,2.90
2019-02-04T16:32:34.104Z,3.37
2019-02-04T16:35:05.548Z,3.30
2019-02-04T16:37:35.775Z,2.80
2019-02-04T16:40:10.212Z,2.90
2019-02-04T16:42:38.976Z,2.57
2019-02-04T16:45:10.916Z,3.00
2019-02-04T16:47:40.189Z,2.50
2019-02-04T16:50:16.867Z,2.93
2019-02-04T16:52:49.834Z,2.60
2019-02-04T16:55:19.355Z,2.53
2019-02-04T16:57:49.441Z,2.43
2019-02-04T17:00:26.454Z,3.17
2019-02-04T17:02:59.577Z,3.00
2019-02-04T17:05:29.466Z,3.47
2019-02-04T17:07:59.048Z,3.73
2019-02-04T17:10:28.870Z,3.53
2019-02-04T17:12:59.207Z,2.50
2019-02-04T17:15:29.391Z,4.10
2019-02-04T17:17:59.061Z,3.40
2019-02-04T17:20:33.124Z,4.20
2019-02-04T17:23:04.660Z,3.60
2019-02-04T17:25:34.949Z,3.00
2019-02-04T17:28:05.547Z,4.50
2019-02-04T17:30:35.975Z,3.67
2019-02-04T17:33:08.190Z,2.70
2019-02-04T17:35:39.912Z,2.80
2019-02-04T17:38:10.248Z,2.80
2019-02-04T17:40:41.903Z,6.30
2019-02-04T17:43:13.419Z,4.20
2019-02-04T17:45:43.474Z,8.10
2019-02-04T17:48:14.228Z,6.77
2019-02-04T17:50:45.015Z,3.10
2019-02-04T17:53:15.859Z,2.93
2019-02-04T17:55:46.836Z,2.60
2019-02-04T17:58:17.599Z,3.20
2019-02-04T18:00:51.314Z,3.37
2019-02-04T18:03:23.688Z,2.53
2019-02-04T18:05:55.080Z,2.67
2019-02-04T18:08:25.827Z,2.20
2019-02-04T18:10:55.161Z,2.03
2019-02-04T18:13:29.311Z,2.77
2019-02-04T18:16:03.193Z,3.10
2019-02-04T18:18:36.082Z,3.77
2019-02-04T18:21:06.252Z,2.80
2019-02-04T18:23:45.568Z,1.90
2019-02-04T18:26:08.009Z,3.10
2019-02-04T18:28:39.141Z,1.83
2019-02-04T18:31:09.914Z,2.07
2019-02-04T18:33:42.352Z,2.10
2019-02-04T18:36:14.258Z,2.43
2019-02-04T18:38:44.478Z,1.60
2019-02-04T18:41:15.728Z,2.03
2019-02-04T18:43:45.086Z,1.90
2019-02-04T18:46:15.115Z,4.60
2019-02-04T18:48:46.709Z,4.20
2019-02-04T18:51:18.009Z,3.30
2019-02-04T18:53:57.467Z,3.27
2019-02-04T18:56:21.298Z,4.23
2019-02-04T18:58:51.909Z,3.73
2019-02-04T19:01:21.816Z,3.10
2019-02-04T19:03:51.474Z,3.03
2019-02-04T19:06:23.174Z,2.80
2019-02-04T19:08:52.439Z,4.37
2019-02-04T19:11:22.746Z,5.30
2019-02-04T19:13:53.934Z,3.80
2019-02-04T19:16:24.161Z,3.87
2019-02-04T19:18:56.365Z,4.37
2019-02-04T19:21:27.857Z,4.60
2019-02-04T19:24:09.065Z,2.33
2019-02-04T19:26:29.904Z,2.73
2019-02-04T19:28:59.641Z,3.57
2019-02-04T19:31:32.707Z,2.03
2019-02-04T19:34:02.959Z,1.60
2019-02-04T19:36:35.104Z,1.67
2019-02-04T19:39:08.535Z,2.57
2019-02-04T19:41:39.702Z,2.43
2019-02-04T19:44:11.147Z,5.50
2019-02-04T19:46:41.056Z,3.60
2019-02-04T19:49:13.438Z,5.17
2019-02-04T19:51:44.167Z,3.73
2019-02-04T19:54:21.674Z,2.53
2019-02-04T19:56:48.956Z,4.40
2019-02-04T19:59:24.505Z,3.80
2019-02-04T20:01:56.214Z,2.50
2019-02-04T20:04:28.522Z,4.23
2019-02-04T20:07:02.132Z,2.83
2019-02-04T20:09:34.802Z,2.37
2019-02-04T20:12:06.755Z,3.43
2019-02-04T20:14:38.377Z,2.50
2019-02-04T20:17:09.330Z,2.67
2019-02-04T20:19:38.769Z,4.57
2019-02-04T20:22:10.406Z,4.43
2019-02-04T20:24:43.502Z,3.60
2019-02-04T20:27:15.426Z,2.90
2019-02-04T20:29:46.883Z,3.43
2019-02-04T20:32:17.157Z,3.73
2019-02-04T20:34:47.804Z,3.40
2019-02-04T20:37:18.886Z,2.00
2019-02-04T20:39:49.012Z,3.50
2019-02-04T20:42:19.453Z,3.43
2019-02-04T20:44:48.409Z,3.10
2019-02-04T20:47:18.528Z,2.73
2019-02-04T20:49:50.851Z,2.87
2019-02-04T20:52:21.729Z,3.10
2019-02-04T20:54:51.752Z,3.17
2019-02-04T20:57:24.720Z,1.83
2019-02-04T20:59:54.954Z,2.90
2019-02-04T21:02:26.478Z,2.63
2019-02-04T21:04:57.989Z,3.20
2019-02-04T21:07:31.370Z,2.53
2019-02-04T21:10:00.854Z,2.50
2019-02-04T21:12:33.157Z,2.17
2019-02-04T21:15:05.029Z,3.50
2019-02-04T21:17:34.867Z,3.80
2019-02-04T21:20:16.442Z,3.27
2019-02-04T21:22:46.343Z,2.70
2019-02-04T21:25:18.284Z,3.63
2019-02-04T21:27:48.498Z,2.83
2019-02-04T21:30:24.122Z,3.60
2019-02-04T21:32:55.978Z,3.47
2019-02-04T21:35:26.779Z,2.70
2019-02-04T21:37:56.197Z,3.40
2019-02-04T21:40:25.657Z,2.93
2019-02-04T21:42:56.644Z,3.07
2019-02-04T21:45:27.038Z,3.30
2019-02-04T21:47:59.952Z,2.93
2019-02-04T21:50:34.027Z,2.70
2019-02-04T21:53:05.845Z,3.00
2019-02-04T21:55:36.269Z,2.50
2019-02-04T21:58:06.746Z,2.83
2019-02-04T22:00:40.089Z,2.90
2019-02-04T22:03:10.221Z,2.90
2019-02-04T22:05:43.684Z,2.80
2019-02-04T22:08:15.084Z,2.47
2019-02-04T22:10:46.652Z,2.90
2019-02-04T22:13:17.107Z,3.07
2019-02-04T22:15:48.789Z,2.57
2019-02-04T22:18:18.373Z,3.00
2019-02-04T22:20:48.738Z,2.87
2019-02-04T22:23:18.568Z,2.90
2019-02-04T22:25:48.496Z,3.10
2019-02-04T22:28:18.590Z,3.10
2019-02-04T22:30:50.728Z,2.43
2019-02-04T22:33:20.512Z,2.90
2019-02-04T22:35:54.337Z,2.60
2019-02-04T22:38:24.277Z,2.77
2019-02-04T22:40:55.441Z,2.70
2019-02-04T22:43:25.149Z,3.60
2019-02-04T22:45:54.988Z,2.63
2019-02-04T22:48:25.011Z,3.07
2019-02-04T22:50:55.221Z,2.90
2019-02-04T22:53:25.580Z,3.20
2019-02-04T22:55:54.818Z,2.60
2019-02-04T22:58:25.095Z,3.70
2019-02-04T23:01:37.691Z,3.00
2019-02-04T23:04:09.812Z,3.10
2019-02-04T23:06:40.384Z,3.40
2019-02-04T23:09:10.882Z,3.67
2019-02-04T23:11:39.899Z,3.47
2019-02-04T23:14:11.339Z,2.80
2019-02-04T23:16:42.770Z,2.70
2019-02-04T23:19:12.682Z,2.47
2019-02-04T23:21:43.546Z,2.53
2019-02-04T23:24:15.049Z,3.10
2019-02-04T23:26:45.891Z,2.43
2019-02-04T23:29:14.423Z,2.80
2019-02-04T23:31:45.689Z,2.50
2019-02-04T23:34:14.612Z,2.80
2019-02-04T23:36:43.801Z,2.97
2019-02-04T23:39:13.006Z,2.90
2019-02-04T23:41:43.975Z,2.27
2019-02-04T23:44:14.479Z,2.93
2019-02-04T23:46:44.446Z,2.83
2019-02-04T23:49:13.310Z,2.70
2019-02-04T23:51:43.226Z,2.90
2019-02-04T23:54:12.791Z,2.60
2019-02-04T23:56:43.689Z,2.93
2019-02-04T23:59:14.696Z,3.10
